This is the latest recevied weather packets stored in our database for station/object K0QED. If no packets are shown the sender has not sent any weather packets the latest 10 day(s).
| Time | Temp. | Humidity | Pressure | Rain* | Wind** | Luminosity | Snow |
|---|---|---|---|---|---|---|---|
| 1777251891 | 6.67° C | 83% | 1006.1 hPa | 0 mm | - | 16 W/m² | - |
| 1777251588 | 6.67° C | 82% | 1006.1 hPa | 0 mm | - | 19 W/m² | - |
| 1777251285 | 6.67° C | 82% | 1006 hPa | 0 mm | - | 27 W/m² | - |
| 1777250980 | 6.67° C | 82% | 1006.1 hPa | 0 mm | - | 39 W/m² | - |
| 1777250677 | 6.67° C | 82% | 1006 hPa | 0 mm | - | 38 W/m² | - |
| 1777250374 | 6.67° C | 81% | 1006.2 hPa | 0 mm | - | 32 W/m² | - |
| 1777250073 | 7.22° C | 80% | 1006 hPa | 0 mm | - | 25 W/m² | - |
| 1777249771 | 7.22° C | 80% | 1005.9 hPa | 0 mm | - | 25 W/m² | - |
| 1777249466 | 7.78° C | 78% | 1006 hPa | 0 mm | - | 25 W/m² | - |
| 1777249164 | 8.89° C | 75% | 1005.6 hPa | 0 mm | - | 27 W/m² | - |
| 1777248860 | 9.44° C | 68% | 1005.7 hPa | 0 mm | - | 45 W/m² | - |
| 1777248557 | 8.89° C | 71% | 1005.4 hPa | 0 mm | - | 62 W/m² | - |
| 1777248254 | 8.89° C | 74% | 1005.7 hPa | 0 mm | - | 177 W/m² | - |
| 1777247948 | 8.89° C | 73% | 1005.9 hPa | 0 mm | - | 127 W/m² | - |
| 1777247643 | 10° C | 65% | 1006 hPa | 0 mm | - | 83 W/m² | - |
| 1777247341 | 10° C | 66% | 1005.9 hPa | 0 mm | - | 95 W/m² | - |
| 1777247039 | 9.44° C | 67% | 1005.5 hPa | 0 mm | - | 119 W/m² | - |
| 1777246735 | 9.44° C | 71% | 1005.5 hPa | 0 mm | - | 116 W/m² | - |
| 1777246431 | 8.89° C | 71% | 1005.7 hPa | 0 mm | - | 80 W/m² | - |
| 1777246129 | 9.44° C | 71% | 1005.4 hPa | 0 mm | - | 44 W/m² | - |
| 1777245826 | 10° C | 67% | 1005.4 hPa | 0 mm | - | 42 W/m² | - |
| 1777245524 | 10° C | 65% | 1005.4 hPa | 0 mm | - | 41 W/m² | - |
| 1777245220 | 9.44° C | 67% | 1005.7 hPa | 0 mm | - | 43 W/m² | - |
| 1777244916 | 9.44° C | 67% | 1005.2 hPa | 0 mm | - | 54 W/m² | - |
| 1777244611 | 10° C | 67% | 1005.5 hPa | 0 mm | - | 101 W/m² | - |
* Rain latest hour (hover to see other rain measurements)
** Current wind speed in m/s (hover to see current wind gust speed)